Time;durP1;ratioP1;P1;durP2;ratioP2;P2;SDS_P1;SDS_P2;PMS_P1;PMS_P2;Temp;Humidity;BMP_temperature;BMP_pressure;BME280_temperature;BME280_humidity;BME280_pressure;Samples;Min_cycle;Max_cycle;Signal;HPM_P1;HPM_P2
2023/04/23 00:01:42;;;;;;;14.50;10.60;;;;;;;14.48;55.43;100424.35;105412;1288;73029;-90
2023/04/23 00:04:09;;;;;;;16.00;11.40;;;;;;;14.39;55.69;100424.77;105439;1288;73696;-90
2023/04/23 00:06:37;;;;;;;;;;;;;;;14.36;55.68;100424.44;105166;1288;63027;-92
2023/04/23 00:09:05;;;;;;;14.10;11.50;;;;;;;14.39;55.66;100426.77;105381;1288;60529;-91
2023/04/23 00:11:32;;;;;;;15.10;11.50;;;;;;;14.36;55.68;100428.25;105376;1287;74958;-90
2023/04/23 00:14:00;;;;;;;14.00;9.70;;;;;;;14.34;55.54;100430.27;105419;1288;72734;-91
2023/04/23 00:16:27;;;;;;;13.40;10.10;;;;;;;14.29;55.68;100429.29;105344;1287;71686;-90
2023/04/23 00:18:54;;;;;;;15.80;12.00;;;;;;;14.27;55.84;100431.83;105390;1287;60712;-94
2023/04/23 00:21:20;;;;;;;15.20;11.40;;;;;;;14.26;55.91;100428.88;105386;1287;60362;-93
2023/04/23 00:23:48;;;;;;;16.20;11.40;;;;;;;14.20;56.12;100430.77;105432;1286;75372;-93
2023/04/23 00:26:17;;;;;;;18.20;13.10;;;;;;;14.12;56.36;100433.11;105185;1288;72920;-90
2023/04/23 00:28:44;;;;;;;15.60;12.30;;;;;;;14.10;56.44;100435.11;105178;1288;73685;-91
2023/04/23 00:31:11;;;;;;;16.20;11.20;;;;;;;14.11;56.66;100434.63;105343;1288;63168;-91
2023/04/23 00:33:37;;;;;;;15.70;11.30;;;;;;;14.13;56.79;100432.30;105093;1288;60576;-91
2023/04/23 00:36:05;;;;;;;13.40;10.10;;;;;;;14.15;56.98;100431.84;105196;1290;74961;-91
2023/04/23 00:38:33;;;;;;;17.10;10.60;;;;;;;14.13;57.15;100432.73;105389;1288;74096;-92
2023/04/23 00:40:59;;;;;;;14.70;11.20;;;;;;;14.08;57.30;100434.05;105368;1287;73769;-90
2023/04/23 00:43:26;;;;;;;14.20;10.40;;;;;;;14.05;57.39;100435.65;105160;1288;61863;-90
2023/04/23 00:45:53;;;;;;;15.00;10.60;;;;;;;14.02;57.66;100436.46;105165;1288;60428;-91
2023/04/23 00:48:22;;;;;;;12.80;10.00;;;;;;;13.98;57.79;100438.86;105197;1288;75029;-91
2023/04/23 00:50:51;;;;;;;14.50;10.10;;;;;;;13.95;58.08;100440.19;105157;1288;71812;-92
2023/04/23 00:53:18;;;;;;;14.20;10.40;;;;;;;13.96;58.14;100443.89;105106;1288;73516;-91
2023/04/23 00:55:45;;;;;;;14.00;10.60;;;;;;;14.00;58.32;100442.52;105362;1288;63024;-91
2023/04/23 00:58:12;;;;;;;16.50;11.80;;;;;;;14.04;58.35;100440.11;105352;1287;60668;-94
2023/04/23 01:00:45;;;;;;;15.40;11.80;;;;;;;14.10;58.30;100444.14;105382;1288;74990;-91
2023/04/23 01:03:12;;;;;;;14.10;10.80;;;;;;;14.13;58.22;100441.53;105389;1288;73892;-92
2023/04/23 01:05:42;;;;;;;20.10;13.90;;;;;;;14.16;58.03;100440.90;105332;1288;72765;-91
2023/04/23 01:08:11;;;;;;;19.40;13.40;;;;;;;14.17;57.86;100436.92;105382;1288;60431;-92
2023/04/23 01:10:38;;;;;;;16.10;12.10;;;;;;;14.20;57.56;100438.45;105408;1286;61667;-92
2023/04/23 01:13:05;;;;;;;18.80;11.30;;;;;;;14.22;57.36;100439.36;105312;1286;73738;-92
2023/04/23 01:15:32;;;;;;;16.30;12.00;;;;;;;14.23;57.40;100438.27;105457;1286;72563;-93
2023/04/23 01:18:00;;;;;;;17.10;12.00;;;;;;;14.22;57.37;100440.52;105335;1289;72970;-92
2023/04/23 01:20:27;;;;;;;20.20;12.90;;;;;;;14.21;57.37;100439.83;105461;1288;62005;-92
2023/04/23 01:22:56;;;;;;;16.90;11.00;;;;;;;14.20;57.45;100438.14;105462;1288;61284;-93
2023/04/23 01:25:23;;;;;;;25.60;11.90;;;;;;;14.19;57.41;100441.80;105260;1288;73686;-92
2023/04/23 01:27:50;;;;;;;20.20;11.50;;;;;;;14.18;57.76;100440.30;105514;1288;71771;-92
2023/04/23 01:30:17;;;;;;;16.40;11.50;;;;;;;14.16;57.90;100441.88;106283;1288;73314;-88
2023/04/23 01:32:44;;;;;;;16.70;12.80;;;;;;;14.15;57.92;100441.02;106387;1287;60054;-87
2023/04/23 01:35:12;;;;;;;20.80;15.10;;;;;;;14.14;58.02;100448.27;106667;1288;59299;-93
2023/04/23 01:37:38;;;;;;;18.60;13.80;;;;;;;14.13;58.15;100441.27;106423;1288;73302;-89
2023/04/23 01:40:07;;;;;;;19.80;14.00;;;;;;;14.10;58.15;100443.65;106387;1288;72703;-93
2023/04/23 01:42:34;;;;;;;15.70;12.30;;;;;;;14.05;58.23;100444.71;106353;1287;71680;-87
2023/04/23 01:45:02;;;;;;;13.30;10.70;;;;;;;13.92;58.64;100445.48;106612;1286;60901;-94
2023/04/23 01:47:29;;;;;;;15.20;11.00;;;;;;;13.92;58.61;100449.46;105676;1287;60441;-92
2023/04/23 01:49:56;;;;;;;15.40;11.80;;;;;;;13.95;58.51;100445.02;105302;1288;74109;-91
2023/04/23 01:52:23;;;;;;;15.30;11.90;;;;;;;13.90;58.46;100447.52;105426;1288;73778;-94
2023/04/23 01:54:50;;;;;;;16.00;12.10;;;;;;;13.86;58.60;100452.67;105419;1288;73763;-92
2023/04/23 01:57:23;;;;;;;16.60;12.20;;;;;;;13.80;58.59;100452.66;105336;1287;60495;-92
2023/04/23 01:59:50;;;;;;;27.20;19.00;;;;;;;13.70;58.57;100453.82;105186;1293;60091;-92
2023/04/23 02:02:16;;;;;;;21.60;16.50;;;;;;;13.61;58.68;100453.08;105176;1288;72658;-94
2023/04/23 02:04:44;;;;;;;23.70;18.10;;;;;;;13.54;58.85;100453.18;105424;1288;73857;-93
2023/04/23 02:07:13;;;;;;;29.40;21.60;;;;;;;13.50;58.89;100453.69;105249;1287;72796;-93
2023/04/23 02:09:40;;;;;;;31.00;22.80;;;;;;;13.46;59.08;100454.79;105300;1288;61970;-92
2023/04/23 02:12:08;;;;;;;32.10;23.70;;;;;;;13.41;59.09;100454.02;105461;1288;60425;-91
2023/04/23 02:14:34;;;;;;;30.30;22.30;;;;;;;13.36;59.09;100456.99;105473;1288;73876;-94
2023/04/23 02:17:02;;;;;;;30.60;22.50;;;;;;;13.29;59.25;100456.83;105462;1288;72386;-93
2023/04/23 02:19:33;;;;;;;32.70;22.90;;;;;;;13.23;59.33;100458.49;105411;1288;72746;-94
2023/04/23 02:22:00;;;;;;;32.40;24.50;;;;;;;13.19;59.45;100458.56;105407;1287;63077;-93
2023/04/23 02:24:27;;;;;;;29.70;21.70;;;;;;;13.17;59.64;100457.94;105467;1286;60446;-93
2023/04/23 02:26:54;;;;;;;29.70;23.80;;;;;;;13.17;59.71;100458.41;105530;1287;72649;-93
2023/04/23 02:29:21;;;;;;;32.90;22.90;;;;;;;13.19;59.72;100459.48;105486;1287;71873;-93
2023/04/23 02:31:48;;;;;;;31.90;23.40;;;;;;;13.17;59.75;100462.60;105250;1286;72750;-93
2023/04/23 02:34:15;;;;;;;26.80;20.90;;;;;;;13.11;59.69;100465.20;105412;1286;63144;-93
2023/04/23 02:36:43;;;;;;;29.00;21.00;;;;;;;12.99;59.86;100467.62;105278;1288;61613;-92
2023/04/23 02:39:11;;;;;;;29.60;21.30;;;;;;;12.90;60.03;100468.89;105407;1288;72293;-95
2023/04/23 02:41:38;;;;;;;28.70;21.40;;;;;;;12.87;60.14;100469.66;105408;1288;72542;-93
2023/04/23 02:44:05;;;;;;;25.80;17.30;;;;;;;12.85;60.19;100474.20;105384;1288;71451;-93
2023/04/23 02:46:35;;;;;;;27.10;20.50;;;;;;;12.79;60.24;100474.77;105398;1287;62936;-93
2023/04/23 02:49:02;;;;;;;27.40;20.20;;;;;;;12.74;60.52;100476.56;105238;1288;60342;-93
2023/04/23 02:51:30;;;;;;;24.80;20.00;;;;;;;12.73;60.60;100473.92;105355;1288;75105;-93
2023/04/23 02:53:57;;;;;;;26.30;19.20;;;;;;;12.73;60.67;100474.30;105420;1288;71704;-94
2023/04/23 02:56:23;;;;;;;20.70;17.10;;;;;;;12.74;60.73;100476.55;105398;1286;70607;-94
2023/04/23 02:58:50;;;;;;;23.80;18.90;;;;;;;12.78;60.77;100473.92;105226;1288;63113;-94
2023/04/23 03:01:18;;;;;;;26.10;19.20;;;;;;;12.80;60.75;100471.87;105145;1288;61503;-93
2023/04/23 03:03:45;;;;;;;23.40;18.00;;;;;;;12.82;60.78;100473.91;105126;1288;72150;-92
2023/04/23 03:06:13;;;;;;;24.20;19.00;;;;;;;12.85;60.86;100476.57;105053;1288;72801;-92
2023/04/23 03:08:40;;;;;;;25.30;18.30;;;;;;;12.80;61.02;100476.75;105392;1288;71910;-94
2023/04/23 03:11:07;;;;;;;26.30;18.50;;;;;;;12.75;61.25;100483.84;105166;1288;62307;-93
2023/04/23 03:13:34;;;;;;;25.80;18.00;;;;;;;12.76;61.24;100482.86;105424;1287;61300;-93
2023/04/23 03:16:03;;;;;;;21.80;16.40;;;;;;;12.78;61.25;100487.37;105380;1288;74730;-92
2023/04/23 03:18:30;;;;;;;21.50;17.20;;;;;;;12.77;61.43;100489.90;105173;1288;72918;-93
2023/04/23 03:20:57;;;;;;;25.10;18.00;;;;;;;12.79;61.50;100489.89;105145;1288;72803;-92
2023/04/23 03:23:24;;;;;;;26.00;18.10;;;;;;;12.81;61.49;100489.71;105255;1287;62124;-94
2023/04/23 03:25:51;;;;;;;24.80;17.50;;;;;;;12.83;61.58;100489.08;105314;1286;61419;-93
2023/04/23 03:28:18;;;;;;;24.80;17.80;;;;;;;12.87;61.66;100489.59;105409;1287;71716;-93
2023/04/23 03:30:45;;;;;;;22.20;17.30;;;;;;;12.90;61.67;100492.36;105416;1287;71821;-92
2023/04/23 03:33:12;;;;;;;25.60;18.40;;;;;;;12.93;61.75;100495.57;105410;1287;73973;-92
2023/04/23 03:35:39;;;;;;;22.40;17.40;;;;;;;12.96;61.76;100499.42;105281;1288;62146;-91
2023/04/23 03:38:13;;;;;;;20.40;16.30;;;;;;;13.01;61.92;100500.92;105443;1287;60308;-92
2023/04/23 03:40:40;;;;;;;24.30;17.60;;;;;;;13.03;61.94;100502.35;105438;1286;74926;-93
2023/04/23 03:43:07;;;;;;;19.40;16.00;;;;;;;13.06;62.05;100501.85;105427;1286;72881;-92
2023/04/23 03:45:48;;;;;;;22.70;16.20;;;;;;;13.12;62.15;100504.99;105436;1286;74033;-93
2023/04/23 03:48:15;;;;;;;21.10;16.60;;;;;;;13.16;62.08;100505.67;105303;1288;61024;-92
2023/04/23 03:50:42;;;;;;;23.60;16.90;;;;;;;13.19;62.15;100506.34;105400;1287;60341;-92
2023/04/23 03:53:36;;;;;;;24.20;16.90;;;;;;;13.20;62.28;100512.57;105387;1290;75033;-93
2023/04/23 03:56:31;;;;;;;22.90;16.90;;;;;;;13.22;62.33;100514.39;105352;1288;73667;-93
2023/04/23 03:59:19;;;;;;;21.60;16.40;;;;;;;13.30;62.55;100515.40;105416;1286;73679;-93
2023/04/23 04:01:47;;;;;;;20.80;16.50;;;;;;;13.35;62.57;100518.17;105406;1287;62407;-92
2023/04/23 04:04:14;;;;;;;21.30;17.20;;;;;;;13.42;62.58;100517.23;105315;1286;60421;-92
2023/04/23 04:06:42;;;;;;;20.40;16.70;;;;;;;13.48;62.57;100519.55;105423;1286;75154;-92
2023/04/23 04:09:09;;;;;;;22.00;16.90;;;;;;;13.54;62.53;100524.52;105304;1288;73973;-92
2023/04/23 04:11:36;;;;;;;22.60;17.40;;;;;;;13.56;62.58;100525.78;105423;1287;73826;-93
2023/04/23 04:14:03;;;;;;;23.40;17.00;;;;;;;13.71;62.32;100523.71;105430;1287;61467;-94
2023/04/23 04:16:30;;;;;;;22.60;17.10;;;;;;;13.83;62.31;100524.97;105409;1288;60488;-93
2023/04/23 04:18:57;;;;;;;22.80;17.10;;;;;;;13.94;62.26;100526.81;105386;1288;73560;-92
2023/04/23 04:21:24;;;;;;;21.10;16.20;;;;;;;14.06;62.13;100529.03;105356;1288;74068;-92
2023/04/23 04:23:52;;;;;;;18.40;14.30;;;;;;;14.19;61.96;100531.99;105191;1288;72746;-93
2023/04/23 04:26:19;;;;;;;21.80;16.20;;;;;;;14.26;61.76;100535.91;105409;1286;60383;-93
2023/04/23 04:28:46;;;;;;;;;;;;;;;14.26;61.75;100535.70;105468;1286;60223;-92
2023/04/23 04:31:14;;;;;;;19.60;14.80;;;;;;;14.30;61.65;100539.27;105430;1288;74027;-93
2023/04/23 04:33:42;;;;;;;22.90;14.40;;;;;;;14.42;61.27;100543.52;105281;1288;73881;-93
2023/04/23 04:36:09;;;;;;;21.90;14.50;;;;;;;14.49;61.02;100540.13;105310;1289;73112;-93
2023/04/23 04:38:38;;;;;;;18.00;13.30;;;;;;;14.57;60.83;100541.69;105340;1288;62284;-93
2023/04/23 04:41:06;;;;;;;19.10;13.20;;;;;;;14.66;60.40;100541.60;105345;1288;60372;-92
2023/04/23 04:43:33;;;;;;;20.50;13.00;;;;;;;14.75;59.65;100544.46;105409;1288;73915;-95
2023/04/23 04:46:04;;;;;;;18.00;14.20;;;;;;;14.86;59.17;100547.52;105392;1288;74151;-93
2023/04/23 04:48:34;;;;;;;19.30;13.90;;;;;;;14.93;58.93;100548.11;105358;1292;72896;-92
2023/04/23 04:51:01;;;;;;;17.80;13.10;;;;;;;14.90;58.80;100553.67;105320;1288;61736;-94
2023/04/23 04:53:29;;;;;;;18.90;14.20;;;;;;;14.86;58.79;100552.67;105324;1287;60741;-93
2023/04/23 04:55:56;;;;;;;20.20;14.80;;;;;;;14.89;58.53;100552.77;105379;1288;72060;-92
2023/04/23 04:58:23;;;;;;;18.10;14.00;;;;;;;14.93;58.38;100553.16;105380;1288;74033;-92
2023/04/23 05:00:50;;;;;;;18.80;14.80;;;;;;;14.96;58.35;100556.50;105285;1288;73837;-91
2023/04/23 05:03:18;;;;;;;16.50;12.00;;;;;;;15.05;58.22;100560.81;105355;1288;63056;-92
2023/04/23 05:05:47;;;;;;;17.60;12.40;;;;;;;15.15;57.98;100562.80;105370;1287;60270;-92
2023/04/23 05:08:15;;;;;;;15.80;12.40;;;;;;;15.25;57.44;100562.57;105438;1288;75153;-92
2023/04/23 05:10:43;;;;;;;14.10;10.90;;;;;;;15.36;57.00;100567.34;105472;1288;73785;-93
2023/04/23 05:13:10;;;;;;;15.30;11.50;;;;;;;15.37;56.64;100568.82;105449;1286;73912;-93
2023/04/23 05:15:37;;;;;;;15.20;10.50;;;;;;;15.46;56.16;100569.73;105445;1288;61221;-92
2023/04/23 05:18:04;;;;;;;14.00;11.30;;;;;;;15.58;55.98;100569.69;105446;1286;60417;-92
2023/04/23 05:20:31;;;;;;;15.10;11.30;;;;;;;15.75;55.45;100571.64;105397;1286;74717;-91
2023/04/23 05:22:58;;;;;;;13.80;10.60;;;;;;;15.83;55.14;100575.23;105407;1287;72807;-91
2023/04/23 05:25:25;;;;;;;15.10;10.60;;;;;;;15.89;54.65;100571.66;105333;1288;71800;-92
2023/04/23 05:27:52;;;;;;;12.80;9.80;;;;;;;15.94;54.18;100574.27;105347;1288;60368;-92
2023/04/23 05:30:19;;;;;;;15.40;10.60;;;;;;;16.00;54.00;100576.72;105355;1288;61478;-92
2023/04/23 05:32:46;;;;;;;13.70;10.60;;;;;;;16.09;53.83;100580.98;105181;1289;73328;-91
2023/04/23 05:35:13;;;;;;;14.80;9.40;;;;;;;16.22;53.39;100582.98;105374;1288;73108;-93
2023/04/23 05:37:40;;;;;;;16.20;9.70;;;;;;;16.35;52.82;100580.81;105360;1288;74027;-92
2023/04/23 05:40:08;;;;;;;14.00;10.00;;;;;;;16.46;52.11;100584.67;105298;1288;61660;-92
2023/04/23 05:42:35;;;;;;;12.70;9.60;;;;;;;16.56;51.32;100587.36;105374;1288;60611;-92
2023/04/23 05:45:02;;;;;;;12.70;9.90;;;;;;;16.69;50.88;100587.17;105395;1288;71502;-92
2023/04/23 05:47:29;;;;;;;13.80;10.60;;;;;;;16.79;50.53;100588.75;105377;1288;73973;-91
2023/04/23 05:49:58;;;;;;;14.00;9.80;;;;;;;16.91;50.18;100590.65;105353;1288;72566;-91
2023/04/23 05:52:25;;;;;;;12.70;9.40;;;;;;;17.01;49.74;100587.60;105300;1288;61143;-91
2023/04/23 05:54:52;;;;;;;9.10;6.80;;;;;;;17.11;48.65;100584.44;105424;1288;60368;-91
2023/04/23 05:57:19;;;;;;;12.00;7.40;;;;;;;17.20;47.77;100591.18;105327;1288;73878;-91
2023/04/23 05:59:45;;;;;;;10.80;7.60;;;;;;;17.26;46.92;100589.54;105386;1287;72846;-92
2023/04/23 06:02:12;;;;;;;12.50;8.60;;;;;;;17.32;46.48;100590.81;105454;1287;73748;-91
2023/04/23 06:04:39;;;;;;;12.50;8.40;;;;;;;17.40;45.86;100597.30;105339;1287;60479;-91
2023/04/23 06:07:07;;;;;;;13.50;8.20;;;;;;;17.45;45.44;100599.30;105456;1287;60466;-91
2023/04/23 06:09:34;;;;;;;10.90;7.80;;;;;;;17.48;45.17;100601.84;105489;1286;72194;-92
2023/04/23 06:12:02;;;;;;;10.10;8.40;;;;;;;17.51;45.05;100603.01;105532;1286;71877;-92
2023/04/23 06:14:29;;;;;;;12.00;8.10;;;;;;;17.57;44.95;100604.45;105436;1288;73662;-91
2023/04/23 06:16:56;;;;;;;10.90;8.10;;;;;;;17.64;44.62;100605.66;105632;1287;60612;-93
2023/04/23 06:19:26;;;;;;;10.50;8.10;;;;;;;17.70;44.67;100610.39;106237;1286;59486;-93
2023/04/23 06:21:53;;;;;;;13.30;7.50;;;;;;;17.78;44.72;100612.55;106495;1286;72818;-93
2023/04/23 06:24:21;;;;;;;11.00;8.20;;;;;;;17.87;44.55;100610.33;106658;1287;71888;-82
2023/04/23 06:26:48;;;;;;;11.90;7.80;;;;;;;17.95;44.02;100613.27;106545;1287;72420;-92
2023/04/23 06:29:15;;;;;;;11.50;8.10;;;;;;;17.99;43.81;100614.50;106056;1288;60588;-93
2023/04/23 06:32:03;;;;;;;11.20;7.90;;;;;;;18.00;43.82;100616.61;106447;1288;60079;-93
2023/04/23 06:34:30;;;;;;;12.00;8.40;;;;;;;18.01;43.81;100618.42;106277;1287;73929;-92
2023/04/23 06:36:57;;;;;;;9.60;7.50;;;;;;;18.05;43.35;100616.29;106533;1287;72210;-92
2023/04/23 06:39:24;;;;;;;10.30;7.70;;;;;;;18.07;43.34;100615.39;105714;1288;71892;-93
2023/04/23 06:41:51;;;;;;;10.10;8.20;;;;;;;18.10;43.30;100612.89;105750;1292;60209;-93
2023/04/23 06:44:24;;;;;;;12.10;7.20;;;;;;;18.13;42.98;100615.31;105682;1287;60585;-91
2023/04/23 06:46:51;;;;;;;10.60;8.00;;;;;;;18.17;42.84;100614.52;105639;1292;74812;-90
2023/04/23 06:49:19;;;;;;;10.70;7.70;;;;;;;18.25;42.73;100617.71;106097;1287;72409;-92
2023/04/23 06:51:47;;;;;;;11.10;7.40;;;;;;;18.35;42.42;100615.38;106429;1288;72748;-91
2023/04/23 06:54:13;;;;;;;10.40;7.20;;;;;;;18.43;42.16;100618.11;106138;1288;59293;-88
2023/04/23 06:56:40;;;;;;;8.40;6.00;;;;;;;18.47;42.05;100618.93;106401;1286;60148;-93
2023/04/23 06:59:08;;;;;;;10.20;7.50;;;;;;;18.49;41.81;100620.44;106352;1286;73869;-93
2023/04/23 07:01:41;;;;;;;12.10;7.10;;;;;;;18.59;41.67;100624.70;106362;1286;72660;-91
2023/04/23 07:04:08;;;;;;;8.10;6.30;;;;;;;18.68;41.19;100622.18;106157;1286;72779;-92
2023/04/23 07:06:36;;;;;;;9.90;6.50;;;;;;;18.77;40.61;100623.79;106391;1288;60660;-93
2023/04/23 07:09:03;;;;;;;9.10;6.50;;;;;;;18.80;40.44;100618.55;105865;1288;59918;-91
2023/04/23 07:11:33;;;;;;;10.40;7.00;;;;;;;18.85;40.32;100619.72;105376;1288;74863;-94
2023/04/23 07:14:00;;;;;;;8.20;6.70;;;;;;;18.90;40.50;100621.80;105198;1288;73661;-92
2023/04/23 07:16:32;;;;;;;9.80;6.50;;;;;;;18.97;40.38;100624.39;105025;1288;74008;-92
2023/04/23 07:19:01;;;;;;;8.90;7.10;;;;;;;18.98;39.89;100625.48;105397;1288;61326;-91
2023/04/23 07:21:28;;;;;;;9.00;6.50;;;;;;;18.94;39.96;100624.67;105375;1288;61706;-92
2023/04/23 07:23:56;;;;;;;9.70;6.80;;;;;;;18.90;39.76;100624.45;105313;1286;73988;-93
2023/04/23 07:26:24;;;;;;;8.60;6.00;;;;;;;18.89;39.22;100625.63;105215;1288;71765;-91
2023/04/23 07:28:51;;;;;;;10.10;6.80;;;;;;;18.89;38.97;100626.71;105174;1287;73166;-91
2023/04/23 07:31:20;;;;;;;8.70;6.30;;;;;;;18.91;38.73;100628.55;105423;1287;60429;-93
2023/04/23 07:33:47;;;;;;;9.70;6.90;;;;;;;18.97;38.83;100631.69;105075;1286;61148;-92
2023/04/23 07:36:14;;;;;;;10.10;7.30;;;;;;;19.04;38.99;100632.16;105407;1286;75007;-91
2023/04/23 07:38:41;;;;;;;8.30;5.90;;;;;;;19.11;38.65;100633.98;105447;1288;72727;-91
2023/04/23 07:41:08;;;;;;;9.30;6.30;;;;;;;19.14;38.04;100633.22;105230;1288;72647;-92
2023/04/23 07:43:35;;;;;;;10.30;6.70;;;;;;;19.15;38.05;100634.29;105358;1288;60555;-92
2023/04/23 07:46:02;;;;;;;9.30;6.90;;;;;;;19.20;37.86;100632.80;105350;1288;60735;-91
2023/04/23 07:48:30;;;;;;;8.50;6.10;;;;;;;19.20;37.76;100631.40;105394;1288;73494;-91
2023/04/23 07:51:00;;;;;;;10.00;6.30;;;;;;;19.24;37.55;100633.23;105382;1288;71062;-92
2023/04/23 07:53:27;;;;;;;9.90;6.00;;;;;;;19.32;37.34;100630.52;105449;1288;73996;-91
2023/04/23 07:55:55;;;;;;;11.80;6.80;;;;;;;19.37;37.13;100635.59;105199;1288;60462;-91
2023/04/23 07:58:23;;;;;;;10.50;5.40;;;;;;;19.40;36.89;100630.35;105368;1288;60389;-91
2023/04/23 08:00:51;;;;;;;8.10;5.70;;;;;;;19.42;36.56;100629.44;105070;1289;75130;-91
2023/04/23 08:03:18;;;;;;;8.50;6.20;;;;;;;19.43;36.30;100626.09;105337;1288;72597;-90
2023/04/23 08:05:46;;;;;;;9.60;5.70;;;;;;;19.39;35.89;100626.46;105186;1288;73881;-93
2023/04/23 08:08:13;;;;;;;9.30;5.70;;;;;;;19.39;35.42;100622.05;105382;1288;61457;-92
2023/04/23 08:10:42;;;;;;;7.70;5.00;;;;;;;19.46;35.57;100618.87;105360;1288;61756;-92
2023/04/23 08:13:09;;;;;;;8.00;5.30;;;;;;;19.63;34.90;100613.47;105414;1288;74723;-93
2023/04/23 08:15:39;;;;;;;8.90;6.10;;;;;;;19.75;34.82;100612.14;105323;1286;71246;-93
2023/04/23 08:18:06;;;;;;;7.50;5.30;;;;;;;19.87;34.96;100609.38;105452;1286;72653;-93
2023/04/23 08:20:37;;;;;;;8.50;5.80;;;;;;;20.03;34.65;100606.51;105390;1288;60553;-91
2023/04/23 08:23:04;;;;;;;9.50;5.50;;;;;;;20.15;34.33;100607.91;105333;1286;60388;-91
2023/04/23 08:25:33;;;;;;;7.20;4.80;;;;;;;20.32;34.20;100602.81;105523;1287;74327;-92
2023/04/23 08:28:01;;;;;;;6.60;4.40;;;;;;;20.50;34.02;100600.02;105346;1286;71409;-91
2023/04/23 08:30:28;;;;;;;7.40;5.10;;;;;;;20.69;33.84;100599.39;105461;1287;73981;-92
2023/04/23 08:32:55;;;;;;;8.70;4.90;;;;;;;20.87;33.34;100592.59;105564;1287;61528;-92
2023/04/23 08:35:22;;;;;;;8.50;5.60;;;;;;;20.99;32.98;100592.25;105494;1291;60379;-92
2023/04/23 08:37:49;;;;;;;7.50;4.70;;;;;;;21.04;32.94;100590.89;105340;1288;74928;-92
2023/04/23 08:40:17;;;;;;;6.90;5.00;;;;;;;21.17;32.30;100589.48;105343;1286;72534;-90
2023/04/23 08:43:07;;;;;;;8.10;4.70;;;;;;;21.28;31.76;100588.60;105431;1289;72911;-90
2023/04/23 08:45:40;;;;;;;7.10;4.40;;;;;;;21.37;31.57;100584.34;105470;1287;61469;-92
2023/04/23 08:48:11;;;;;;;6.80;4.80;;;;;;;21.47;31.39;100589.03;105271;1290;60140;-92
2023/04/23 08:50:43;;;;;;;6.40;4.50;;;;;;;21.58;31.60;100585.89;105500;1287;75093;-92
2023/04/23 08:53:10;;;;;;;6.20;4.20;;;;;;;21.73;31.68;100588.23;105437;1290;72703;-92
2023/04/23 08:55:37;;;;;;;7.80;4.20;;;;;;;21.94;31.57;100583.81;105104;1288;73080;-92
2023/04/23 08:58:05;;;;;;;6.30;3.70;;;;;;;22.11;30.95;100584.25;105495;1287;60552;-93
2023/04/23 09:00:33;;;;;;;6.40;4.20;;;;;;;22.17;30.72;100582.34;105345;1287;61254;-93
2023/04/23 09:03:01;;;;;;;5.40;4.10;;;;;;;22.19;30.76;100582.48;105722;1288;74858;-93
2023/04/23 09:05:28;;;;;;;7.00;4.10;;;;;;;22.18;30.90;100581.11;105360;1288;73861;-94
2023/04/23 09:07:58;;;;;;;6.80;4.40;;;;;;;22.17;30.77;100580.75;105148;1288;72558;-92
2023/04/23 09:10:26;;;;;;;8.80;4.90;;;;;;;22.21;30.94;100579.78;105365;1288;60371;-92
2023/04/23 09:12:53;;;;;;;6.20;4.70;;;;;;;22.21;30.96;100580.48;105402;1288;59521;-93
2023/04/23 09:15:30;;;;;;;8.50;5.20;;;;;;;22.19;31.29;100582.89;105137;1289;73851;-93
2023/04/23 09:17:57;;;;;;;6.80;4.80;;;;;;;22.17;31.61;100581.17;105375;1288;71346;-93
2023/04/23 09:20:24;;;;;;;7.70;5.10;;;;;;;22.14;31.79;100579.70;105353;1288;72648;-93
2023/04/23 09:22:51;;;;;;;7.40;5.20;;;;;;;22.15;31.87;100580.00;105342;1288;61455;-93
2023/04/23 09:25:22;;;;;;;7.70;5.10;;;;;;;22.17;31.48;100581.34;105382;1288;60402;-93
2023/04/23 09:27:50;;;;;;;7.80;4.60;;;;;;;22.17;31.18;100577.34;105355;1287;73586;-93
2023/04/23 09:30:18;;;;;;;7.90;4.80;;;;;;;22.14;30.72;100577.75;105323;1288;72632;-91
2023/04/23 09:32:46;;;;;;;6.10;3.80;;;;;;;22.17;30.69;100574.24;105172;1288;72646;-93
2023/04/23 09:35:16;;;;;;;7.00;4.20;;;;;;;22.21;30.37;100570.33;105160;1288;61743;-91
2023/04/23 09:37:47;;;;;;;6.30;3.20;;;;;;;22.25;30.00;100568.22;105375;1288;61203;-92
2023/04/23 09:40:17;;;;;;;6.30;3.20;;;;;;;22.26;29.03;100566.55;105396;1287;75069;-92
2023/04/23 09:42:56;;;;;;;6.90;3.20;;;;;;;22.24;28.51;100566.60;105447;1288;73148;-91
2023/04/23 09:45:24;;;;;;;5.70;3.10;;;;;;;22.27;28.13;100563.30;105443;1291;73860;-92
2023/04/23 09:47:52;;;;;;;4.90;3.00;;;;;;;22.28;28.04;100562.20;105307;1286;60409;-91
2023/04/23 09:50:33;;;;;;;3.80;2.50;;;;;;;22.32;27.15;100564.36;105169;1288;60479;-91
2023/04/23 09:53:00;;;;;;;4.00;2.70;;;;;;;22.32;26.23;100560.30;105141;1288;73150;-91
2023/04/23 09:55:38;;;;;;;7.40;2.80;;;;;;;22.28;26.51;100560.89;105352;1288;73852;-91
2023/04/23 09:58:15;;;;;;;6.30;2.80;;;;;;;22.27;26.72;100559.43;105409;1288;74042;-92
2023/04/23 10:00:42;;;;;;;4.40;2.70;;;;;;;22.35;26.39;100559.02;105433;1288;60592;-92
2023/04/23 10:03:10;;;;;;;6.80;2.40;;;;;;;22.49;25.69;100553.73;105473;1287;60363;-93
2023/04/23 10:05:40;;;;;;;4.30;2.60;;;;;;;22.57;24.62;100555.39;105484;1289;75226;-92
2023/04/23 10:08:26;;;;;;;4.90;2.60;;;;;;;22.65;24.79;100555.73;105233;1288;72758;-92
2023/04/23 10:10:53;;;;;;;3.80;2.30;;;;;;;22.86;24.83;100554.11;105389;1290;72816;-92
2023/04/23 10:13:41;;;;;;;3.90;1.70;;;;;;;23.16;24.55;100552.83;105325;1289;61522;-92
2023/04/23 10:16:09;;;;;;;3.80;2.20;;;;;;;23.38;24.27;100549.23;105403;1289;60524;-91
2023/04/23 10:18:51;;;;;;;3.80;2.30;;;;;;;23.62;23.71;100548.45;105458;1288;74136;-92
2023/04/23 10:21:18;;;;;;;6.90;2.70;;;;;;;23.87;23.67;100546.21;105385;1286;72941;-91
2023/04/23 10:23:46;;;;;;;5.70;2.70;;;;;;;24.13;23.39;100543.89;105071;1287;73299;-91
2023/04/23 10:26:14;;;;;;;6.30;2.10;;;;;;;24.34;22.19;100539.39;105386;1288;60662;-92
2023/04/23 10:28:43;;;;;;;2.20;1.80;;;;;;;24.46;22.40;100536.91;105371;1288;60347;-92
2023/04/23 10:31:10;;;;;;;4.70;2.50;;;;;;;24.52;21.80;100535.03;105210;1286;73828;-89
2023/04/23 10:33:38;;;;;;;5.60;2.60;;;;;;;24.48;20.47;100531.27;105217;1288;72646;-92
2023/04/23 10:36:24;;;;;;;5.50;2.50;;;;;;;24.20;20.67;100538.23;105385;1291;73961;-91
2023/04/23 10:38:55;;;;;;;3.60;2.00;;;;;;;24.12;21.34;100535.77;105311;1292;61209;-89
2023/04/23 10:41:26;;;;;;;5.40;2.70;;;;;;;24.18;21.28;100526.48;105366;1288;185616;-92
2023/04/23 10:43:54;;;;;;;4.60;2.50;;;;;;;24.30;20.52;100528.59;105160;1286;72682;-90
2023/04/23 10:46:31;;;;;;;4.60;2.80;;;;;;;24.30;20.40;100523.74;105495;1291;72903;-95
2023/04/23 10:49:15;;;;;;;5.20;2.10;;;;;;;24.31;21.03;100525.81;105338;1288;72601;-92
2023/04/23 10:51:46;;;;;;;4.60;2.50;;;;;;;24.48;21.02;100520.88;105411;1290;60487;-92
2023/04/23 10:54:33;;;;;;;3.60;2.50;;;;;;;24.75;21.35;100523.27;105463;1289;61546;-89
2023/04/23 10:57:02;;;;;;;4.20;2.70;;;;;;;24.93;21.26;100525.23;105439;1288;74958;-90
2023/04/23 10:59:30;;;;;;;4.70;2.50;;;;;;;25.01;21.23;100523.88;105479;1286;72447;-90
2023/04/23 11:01:58;;;;;;;5.00;3.10;;;;;;;25.05;21.16;100522.95;105437;1291;72890;-91
2023/04/23 11:04:27;;;;;;;3.60;2.40;;;;;;;25.10;21.46;100521.40;105284;1288;60913;-91
2023/04/23 11:06:55;;;;;;;4.70;2.70;;;;;;;25.12;21.55;100522.40;105279;1293;60498;-92
2023/04/23 11:09:41;;;;;;;4.30;2.60;;;;;;;25.08;20.98;100522.41;105364;1290;72915;-91
2023/04/23 11:12:28;;;;;;;3.70;2.50;;;;;;;25.00;21.42;100523.77;105367;1292;73571;-92
2023/04/23 11:14:55;;;;;;;4.70;2.90;;;;;;;24.90;21.45;100524.79;105352;1288;72757;-91
2023/04/23 11:17:32;;;;;;;4.20;2.70;;;;;;;24.84;22.14;100527.99;105298;1293;61719;-92